Time;durP1;ratioP1;P1;durP2;ratioP2;P2;SDS_P1;SDS_P2;PMS_P1;PMS_P2;Temp;Humidity;BMP_temperature;BMP_pressure;BME280_temperature;BME280_humidity;BME280_pressure;Samples;Min_cycle;Max_cycle;Signal;HPM_P1;HPM_P2
2022/06/09 00:00:35;;;;;;;0.77;0.57;;;;;;;12.70;96.50;96821.91;5064794;28;20052;-62
2022/06/09 00:03:08;;;;;;;1.95;0.80;;;;;;;12.72;96.64;96827.84;5065586;28;20037;-61
2022/06/09 00:05:37;;;;;;;1.55;0.55;;;;;;;12.73;95.98;96831.41;5066355;28;20204;-61
2022/06/09 00:08:06;;;;;;;0.98;0.55;;;;;;;12.80;95.15;96833.81;5068898;28;20078;-61
2022/06/09 00:10:37;;;;;;;3.22;0.60;;;;;;;12.85;95.00;96845.47;5069173;28;20045;-62
2022/06/09 00:13:04;;;;;;;0.40;0.35;;;;;;;12.90;95.59;96850.03;5068474;28;20115;-61
2022/06/09 00:15:31;;;;;;;1.50;0.70;;;;;;;12.77;96.11;96842.50;5069280;28;20098;-61
2022/06/09 00:17:58;;;;;;;2.60;0.50;;;;;;;12.77;96.57;96840.63;5069003;28;20055;-61
2022/06/09 00:20:25;;;;;;;0.60;0.45;;;;;;;12.84;96.17;96843.03;5068110;28;20048;-61
2022/06/09 00:22:52;;;;;;;2.05;0.60;;;;;;;12.79;95.29;96843.84;5069156;28;20048;-61
2022/06/09 00:25:18;;;;;;;1.80;0.50;;;;;;;12.81;95.77;96855.28;5068711;28;20055;-62
2022/06/09 00:27:45;;;;;;;1.08;0.60;;;;;;;12.80;95.26;96844.69;5068657;28;20036;-62
2022/06/09 00:30:16;;;;;;;0.55;0.40;;;;;;;12.80;94.92;96848.22;5067568;28;20049;-62
2022/06/09 00:32:43;;;;;;;0.45;0.30;;;;;;;12.80;96.00;96848.22;5068024;28;20044;-62
2022/06/09 00:35:10;;;;;;;1.95;0.50;;;;;;;12.78;95.78;96846.88;5069048;28;20100;-62
2022/06/09 00:37:37;;;;;;;0.60;0.50;;;;;;;12.77;95.88;96845.22;5067315;28;20041;-62
2022/06/09 00:40:06;;;;;;;1.60;0.50;;;;;;;12.80;96.44;96844.69;5068859;28;20041;-62
2022/06/09 00:42:34;;;;;;;2.15;0.60;;;;;;;12.77;95.79;96856.91;5068777;28;20047;-62
2022/06/09 00:45:31;;;;;;;4.65;0.47;;;;;;;12.73;96.52;96851.25;5068356;28;20052;-62
2022/06/09 00:48:01;;;;;;;2.58;0.85;;;;;;;12.57;96.59;96844.25;5068237;28;20040;-62
2022/06/09 00:50:30;;;;;;;1.20;0.40;;;;;;;12.52;97.63;96847.78;5068102;28;20066;-62
2022/06/09 00:53:02;;;;;;;3.00;0.50;;;;;;;12.50;98.01;96858.13;5068826;28;20186;-61
2022/06/09 00:55:33;;;;;;;0.85;0.50;;;;;;;12.34;98.24;96847.31;5068205;28;20068;-61
2022/06/09 00:58:13;;;;;;;1.02;0.50;;;;;;;12.21;99.95;96861.47;5068149;28;20041;-62
2022/06/09 01:00:52;;;;;;;2.45;0.75;;;;;;;12.16;100.00;96873.13;5067982;28;20048;-62
2022/06/09 01:03:21;;;;;;;0.80;0.35;;;;;;;12.04;100.00;96870.69;5067994;28;20628;-62
2022/06/09 01:05:51;;;;;;;1.80;0.40;;;;;;;11.93;100.00;96875.31;5068173;28;20495;-61
2022/06/09 01:08:17;;;;;;;3.33;0.60;;;;;;;11.89;100.00;96874.22;5068216;28;20429;-62
2022/06/09 01:10:44;;;;;;;1.63;0.50;;;;;;;11.88;100.00;96871.78;5067267;28;20041;-62
2022/06/09 01:13:10;;;;;;;1.00;0.50;;;;;;;11.84;100.00;96863.38;5068322;28;20045;-62
2022/06/09 01:15:46;;;;;;;1.67;0.50;;;;;;;11.79;100.00;96866.13;5067519;28;20048;-62
2022/06/09 01:18:46;;;;;;;1.83;0.50;;;;;;;11.75;100.00;96856.91;5067154;28;20045;-61
2022/06/09 01:21:31;;;;;;;1.38;0.50;;;;;;;11.70;100.00;96858.53;5057889;28;20048;-61
2022/06/09 01:24:25;;;;;;;1.20;0.50;;;;;;;11.71;100.00;96857.44;5067936;28;20033;-63
2022/06/09 01:26:54;;;;;;;2.30;0.60;;;;;;;11.67;100.00;96852.81;5068078;28;20048;-62
2022/06/09 01:29:23;;;;;;;3.00;0.85;;;;;;;11.66;100.00;96856.63;5067212;28;20045;-62
2022/06/09 01:32:00;;;;;;;2.78;0.80;;;;;;;11.74;100.00;96860.66;5066530;28;20858;-61
2022/06/09 01:34:42;;;;;;;2.17;0.90;;;;;;;11.71;100.00;96856.59;5067516;28;20412;-62
2022/06/09 01:37:14;;;;;;;;;;;;;;;11.71;100.00;96857.44;5068422;28;20040;-62
2022/06/09 01:39:59;;;;;;;6.80;1.23;;;;;;;11.73;100.00;96868.00;5057499;28;20880;-62
2022/06/09 01:42:36;;;;;;;1.30;0.90;;;;;;;11.77;100.00;96866.38;5065798;28;20086;-62
2022/06/09 01:45:19;;;;;;;4.93;1.10;;;;;;;11.78;100.00;96868.00;5067691;28;20037;-62
2022/06/09 01:47:52;;;;;;;2.30;0.85;;;;;;;11.78;100.00;96864.47;5065026;28;20048;-61
2022/06/09 01:50:54;;;;;;;3.50;0.90;;;;;;;11.78;100.00;96867.19;5067280;28;20065;-62
2022/06/09 01:53:30;;;;;;;1.83;1.08;;;;;;;11.78;100.00;96875.31;5058929;28;20056;-61
2022/06/09 01:56:03;;;;;;;1.58;0.90;;;;;;;11.78;100.00;96883.44;5066688;28;20036;-62
2022/06/09 01:58:36;;;;;;;2.28;0.90;;;;;;;11.74;100.00;96883.19;5065297;28;20697;-61
2022/06/09 02:01:04;;;;;;;7.63;1.60;;;;;;;11.77;100.00;96876.41;5067004;28;20499;-61
2022/06/09 02:03:38;;;;;;;3.42;0.95;;;;;;;11.72;100.00;96885.34;5066556;28;20547;-61
2022/06/09 02:06:07;;;;;;;2.90;1.13;;;;;;;11.69;100.00;96878.56;5066584;28;20567;-61
2022/06/09 02:08:36;;;;;;;1.77;1.10;;;;;;;11.67;100.00;96874.50;5066985;28;20628;-61
2022/06/09 02:11:12;;;;;;;4.00;1.20;;;;;;;11.68;100.00;96874.25;5066541;28;20036;-61
2022/06/09 02:13:47;;;;;;;2.38;1.40;;;;;;;11.66;100.00;96884.56;5066716;28;20046;-61
2022/06/09 02:16:17;;;;;;;3.58;1.40;;;;;;;11.67;100.00;96885.34;5066479;28;20052;-61
2022/06/09 02:18:47;;;;;;;2.25;1.10;;;;;;;11.68;100.00;96890.50;5066342;28;20052;-61
2022/06/09 02:21:43;;;;;;;4.53;1.58;;;;;;;11.71;100.00;96898.13;5066484;28;20052;-62
2022/06/09 02:24:10;;;;;;;4.28;1.50;;;;;;;11.71;100.00;96892.69;5063604;28;20072;-62
2022/06/09 02:26:36;;;;;;;3.40;1.25;;;;;;;11.68;100.00;96886.97;5066663;28;20478;-61
2022/06/09 02:29:03;;;;;;;4.05;1.17;;;;;;;11.61;100.00;96897.28;5065512;28;20047;-62
2022/06/09 02:31:30;;;;;;;3.42;1.10;;;;;;;11.61;100.00;96911.66;5064348;28;20101;-62
2022/06/09 02:33:56;;;;;;;4.57;1.75;;;;;;;11.65;100.00;96910.03;5065035;28;20036;-61
2022/06/09 02:36:23;;;;;;;2.30;1.20;;;;;;;11.67;100.00;96912.47;5065470;28;20594;-61
2022/06/09 02:38:50;;;;;;;4.88;1.30;;;;;;;11.65;100.00;96904.59;5066138;28;20052;-62
2022/06/09 02:41:17;;;;;;;2.38;1.30;;;;;;;11.65;100.00;96912.75;5066744;28;20423;-62
2022/06/09 02:43:43;;;;;;;3.40;1.48;;;;;;;11.62;100.00;96910.59;5065999;28;20033;-61
2022/06/09 02:46:10;;;;;;;7.82;1.45;;;;;;;11.56;100.00;96907.06;5065760;28;20131;-62
2022/06/09 02:48:37;;;;;;;3.72;1.35;;;;;;;11.57;100.00;96910.56;5065727;28;20040;-61
2022/06/09 02:51:26;;;;;;;3.65;1.70;;;;;;;11.58;100.00;96909.50;5066234;28;20045;-61
2022/06/09 02:54:06;;;;;;;5.72;1.65;;;;;;;11.56;100.00;96912.47;5057204;28;20396;-62
2022/06/09 02:56:33;;;;;;;4.57;1.80;;;;;;;11.63;100.00;96914.91;5051372;28;20052;-61
2022/06/09 02:58:59;;;;;;;3.92;1.30;;;;;;;11.68;100.00;96912.22;5066023;28;20090;-60
2022/06/09 03:01:28;;;;;;;3.88;1.55;;;;;;;11.68;100.00;96916.81;5064932;28;20844;-61
2022/06/09 03:03:56;;;;;;;4.13;1.55;;;;;;;11.68;100.00;96919.50;5065064;28;20056;-62
2022/06/09 03:06:22;;;;;;;2.90;1.55;;;;;;;11.74;100.00;96923.03;5065591;28;20485;-62
2022/06/09 03:08:49;;;;;;;3.40;1.58;;;;;;;11.76;100.00;96923.59;5065446;28;20644;-61
2022/06/09 03:11:16;;;;;;;5.03;1.60;;;;;;;11.76;100.00;96918.97;5065702;28;20048;-61
2022/06/09 03:13:44;;;;;;;6.22;1.65;;;;;;;11.80;100.00;96921.97;5064662;28;20055;-61
2022/06/09 03:16:13;;;;;;;4.63;1.70;;;;;;;11.84;100.00;96932.00;5065552;28;20173;-62
2022/06/09 03:18:41;;;;;;;5.00;1.70;;;;;;;11.83;100.00;96932.28;5065659;28;20448;-61
2022/06/09 03:21:07;;;;;;;4.05;1.50;;;;;;;11.76;100.00;96937.16;5065247;28;20550;-61
2022/06/09 03:23:34;;;;;;;7.38;2.00;;;;;;;11.71;100.00;96944.22;5065739;28;20041;-61
2022/06/09 03:26:00;;;;;;;4.38;2.03;;;;;;;11.69;100.00;96932.81;5065066;28;20047;-62
2022/06/09 03:28:27;;;;;;;5.68;2.42;;;;;;;11.63;100.00;96931.19;5065238;28;20048;-61
2022/06/09 03:30:55;;;;;;;4.70;1.60;;;;;;;11.64;100.00;96930.09;5065521;28;20459;-62
2022/06/09 03:33:22;;;;;;;5.85;1.70;;;;;;;11.57;100.00;96937.69;5061776;28;20048;-62
2022/06/09 03:35:48;;;;;;;4.43;2.28;;;;;;;11.52;100.00;96941.22;5066411;28;20052;-61
2022/06/09 03:38:15;;;;;;;4.15;2.10;;;;;;;11.52;100.00;96941.22;5059832;28;20099;-62
2022/06/09 03:40:42;;;;;;;7.78;2.00;;;;;;;11.57;100.00;96946.63;5053445;28;20036;-61
2022/06/09 03:43:09;;;;;;;4.47;1.70;;;;;;;11.63;100.00;96949.34;5063209;28;20032;-61
2022/06/09 03:45:36;;;;;;;4.35;2.05;;;;;;;11.67;100.00;96955.88;5063432;28;20507;-62
2022/06/09 03:48:03;;;;;;;5.55;1.83;;;;;;;11.69;100.00;96954.50;5063533;28;20052;-62
2022/06/09 03:50:31;;;;;;;4.38;1.60;;;;;;;11.69;100.00;96964.56;5063199;28;20062;-61
2022/06/09 03:52:58;;;;;;;6.53;1.77;;;;;;;11.67;100.00;96951.25;5063705;28;20052;-61
2022/06/09 03:55:25;;;;;;;4.47;1.70;;;;;;;11.67;100.00;96956.69;5062565;28;20048;-61
2022/06/09 03:57:51;;;;;;;3.15;1.67;;;;;;;11.72;100.00;96958.56;5062941;28;20141;-61
2022/06/09 04:00:25;;;;;;;6.97;1.90;;;;;;;11.70;99.60;96958.03;5063041;28;20044;-62
2022/06/09 04:02:52;;;;;;;6.47;1.55;;;;;;;11.67;99.10;96956.69;5062757;28;20055;-62
2022/06/09 04:05:20;;;;;;;4.97;1.88;;;;;;;11.72;99.57;96961.28;5063357;28;20048;-61
2022/06/09 04:07:47;;;;;;;2.72;1.40;;;;;;;11.75;98.98;96968.09;5062905;28;20114;-61
2022/06/09 04:10:23;;;;;;;3.28;1.52;;;;;;;11.67;99.86;96972.97;5062276;28;20053;-61
2022/06/09 04:12:49;;;;;;;6.20;1.50;;;;;;;11.55;99.33;96969.69;5050821;28;20067;-62
2022/06/09 04:15:17;;;;;;;6.43;2.03;;;;;;;11.53;100.00;96972.66;5067364;28;20067;-61
2022/06/09 04:17:45;;;;;;;5.28;2.10;;;;;;;11.44;100.00;96979.69;5066018;28;20055;-63
2022/06/09 04:20:15;;;;;;;4.03;1.90;;;;;;;11.35;100.00;96982.09;5063145;28;20044;-62
2022/06/09 04:22:42;;;;;;;5.05;1.90;;;;;;;11.28;100.00;96985.06;5063308;28;20804;-62
2022/06/09 04:25:16;;;;;;;5.13;2.08;;;;;;;11.29;100.00;96989.41;5063686;28;20556;-62
2022/06/09 04:27:42;;;;;;;4.40;1.90;;;;;;;11.27;100.00;96994.28;5063157;28;20048;-61
2022/06/09 04:30:10;;;;;;;7.25;2.08;;;;;;;11.31;99.77;96999.97;5063288;28;20058;-61
2022/06/09 04:32:36;;;;;;;6.97;1.63;;;;;;;11.36;99.38;97004.59;5068770;28;20062;-62
2022/06/09 04:35:03;;;;;;;4.72;1.90;;;;;;;11.41;98.43;97002.72;5073970;28;20048;-62
2022/06/09 04:40:16;;;;;;;9.32;1.92;;;;;;;11.37;98.38;97009.75;5062008;28;20090;-62
2022/06/09 04:42:42;;;;;;;5.75;1.88;;;;;;;11.35;98.31;97002.97;5063605;28;20033;-61
2022/06/09 04:45:09;;;;;;;3.75;1.63;;;;;;;11.36;99.13;97016.28;5062018;28;20037;-61
2022/06/09 04:47:36;;;;;;;3.15;1.60;;;;;;;11.31;99.29;97003.50;5062734;28;20048;-61
2022/06/09 04:50:03;;;;;;;6.88;1.90;;;;;;;11.30;99.84;97007.31;5063081;28;20040;-61
2022/06/09 04:52:30;;;;;;;3.20;1.52;;;;;;;11.39;98.79;97014.91;5065212;28;20555;-60
2022/06/09 04:54:57;;;;;;;4.90;1.80;;;;;;;11.40;99.39;97014.66;5068272;28;20652;-61
2022/06/09 04:57:24;;;;;;;6.57;1.85;;;;;;;11.52;98.94;97019.84;5077998;28;20838;-61
2022/06/09 04:59:50;;;;;;;4.85;2.30;;;;;;;11.57;99.10;97019.84;5072910;28;20048;-61
2022/06/09 05:02:17;;;;;;;3.55;2.05;;;;;;;11.60;98.54;97026.63;5076461;28;20044;-61
2022/06/09 05:04:44;;;;;;;5.50;1.85;;;;;;;11.67;98.98;97024.47;5071358;28;20090;-60
2022/06/09 05:07:11;;;;;;;4.80;2.13;;;;;;;11.72;98.38;97034.50;5066358;28;20726;-61
2022/06/09 05:09:37;;;;;;;4.40;1.85;;;;;;;11.80;98.53;97028.56;5062290;28;20048;-61
2022/06/09 05:12:04;;;;;;;7.32;1.90;;;;;;;11.88;97.19;97034.56;5065419;28;20055;-60
2022/06/09 05:14:31;;;;;;;6.20;2.15;;;;;;;11.95;97.30;97030.50;5065104;28;20446;-61
2022/06/09 05:16:57;;;;;;;6.22;2.03;;;;;;;12.01;95.02;97025.09;5075326;28;20509;-61
2022/06/09 05:19:24;;;;;;;4.63;1.88;;;;;;;12.07;96.95;97035.72;5066364;28;20555;-60
2022/06/09 05:21:50;;;;;;;5.55;2.00;;;;;;;12.03;95.38;97040.00;5065864;28;20049;-61
2022/06/09 05:24:17;;;;;;;7.57;1.73;;;;;;;11.88;94.55;97040.81;5065194;28;20041;-61
2022/06/09 05:26:43;;;;;;;5.10;1.85;;;;;;;11.90;95.58;97045.97;5066087;28;20682;-61
2022/06/09 05:29:10;;;;;;;5.00;2.00;;;;;;;11.94;94.97;97049.78;5065906;28;20049;-61
2022/06/09 05:31:36;;;;;;;3.33;1.50;;;;;;;12.08;95.63;97050.06;5065518;28;20511;-61
2022/06/09 05:34:03;;;;;;;5.43;2.00;;;;;;;12.14;95.40;97054.44;5065679;28;20059;-61
2022/06/09 05:36:30;;;;;;;3.33;1.55;;;;;;;12.21;93.85;97054.97;5064816;28;21025;-61
2022/06/09 05:47:12;;;;;;;6.15;1.95;;;;;;;12.57;92.20;97054.16;5073349;28;20056;-61
2022/06/09 05:49:39;;;;;;;4.85;1.83;;;;;;;12.72;91.07;97063.41;5064687;28;20082;-61
2022/06/09 05:52:05;;;;;;;4.15;1.48;;;;;;;12.82;90.24;97057.09;5064984;28;20048;-61
2022/06/09 05:54:32;;;;;;;5.07;1.63;;;;;;;12.83;89.14;97072.34;5065259;28;20059;-60
2022/06/09 05:56:58;;;;;;;6.00;2.05;;;;;;;12.95;89.42;97066.59;5064802;28;20094;-61
2022/06/09 05:59:25;;;;;;;5.57;1.50;;;;;;;13.02;87.49;97069.84;5063294;28;20048;-61
2022/06/09 06:01:52;;;;;;;4.82;1.60;;;;;;;13.11;88.30;97067.38;5065118;28;20033;-60
2022/06/09 06:04:18;;;;;;;8.88;1.83;;;;;;;13.25;88.05;97070.34;5064837;28;20068;-60
2022/06/09 06:06:45;;;;;;;5.45;1.75;;;;;;;13.25;89.14;97079.31;5064855;28;20082;-60
2022/06/09 06:09:17;;;;;;;5.32;1.33;;;;;;;13.12;87.50;97074.47;5065446;28;20748;-61
2022/06/09 06:11:47;;;;;;;6.38;1.35;;;;;;;13.05;85.57;97074.72;5065593;28;20721;-61
2022/06/09 06:14:15;;;;;;;4.93;1.55;;;;;;;13.16;86.96;97094.53;5063552;28;20416;-62
2022/06/09 06:16:42;;;;;;;7.15;1.60;;;;;;;13.26;86.70;97088.25;5064703;28;20094;-61
2022/06/09 06:19:12;;;;;;;4.50;1.58;;;;;;;13.35;86.08;97094.75;5065037;28;20044;-62
2022/06/09 06:21:40;;;;;;;5.50;1.98;;;;;;;13.46;86.17;97100.19;5064787;28;20072;-61
2022/06/09 06:24:08;;;;;;;5.13;1.52;;;;;;;13.48;85.42;97101.56;5064609;28;20098;-62
2022/06/09 06:26:35;;;;;;;6.25;1.35;;;;;;;13.63;85.68;97094.41;5064344;28;20044;-62
2022/06/09 06:29:04;;;;;;;5.75;1.17;;;;;;;13.68;83.00;97101.75;5064704;28;20117;-61
2022/06/09 06:31:31;;;;;;;4.35;1.30;;;;;;;13.52;83.32;97104.53;5064063;28;20044;-61
2022/06/09 06:33:58;;;;;;;6.28;1.55;;;;;;;13.30;83.43;97111.09;5063633;28;20036;-62
2022/06/09 06:36:24;;;;;;;2.33;0.90;;;;;;;13.32;80.94;97117.09;5064338;28;20055;-61
2022/06/09 06:38:51;;;;;;;5.85;1.20;;;;;;;13.24;81.78;97114.94;5063926;28;20041;-62
2022/06/09 06:41:18;;;;;;;5.93;1.30;;;;;;;13.13;80.96;97127.72;5078033;28;20052;-60
2022/06/09 06:43:46;;;;;;;5.07;1.10;;;;;;;13.22;81.43;97134.22;5064088;28;20052;-62
2022/06/09 06:46:13;;;;;;;9.48;1.48;;;;;;;13.36;80.69;97139.09;5064609;28;20063;-61
2022/06/09 06:48:40;;;;;;;2.50;0.90;;;;;;;13.45;79.08;97133.91;5064447;28;20072;-62
2022/06/09 06:51:07;;;;;;;5.57;1.50;;;;;;;13.37;78.08;97136.09;5063467;28;20048;-61
2022/06/09 06:53:35;;;;;;;4.88;1.20;;;;;;;13.48;79.27;97130.66;5064197;28;20044;-60
2022/06/09 06:56:03;;;;;;;2.78;0.90;;;;;;;13.60;77.34;97130.34;5063329;28;20097;-61
2022/06/09 06:58:30;;;;;;;6.10;2.35;;;;;;;13.71;79.07;97133.84;5063691;28;20048;-61
2022/06/09 07:00:58;;;;;;;11.70;2.15;;;;;;;13.80;79.15;97143.06;5063813;28;20044;-61
2022/06/09 07:03:25;;;;;;;2.63;0.70;;;;;;;13.87;77.24;97145.47;5063940;28;20049;-61
2022/06/09 07:05:59;;;;;;;6.28;1.23;;;;;;;13.93;78.43;97143.56;5063719;28;20144;-62
2022/06/09 07:08:26;;;;;;;10.55;1.42;;;;;;;13.96;76.75;97151.97;5059457;28;20420;-61
2022/06/09 07:10:54;;;;;;;6.85;1.17;;;;;;;13.88;77.67;97150.66;5063783;28;20051;-61
2022/06/09 07:13:21;;;;;;;5.50;1.05;;;;;;;13.75;76.62;97159.41;5063472;28;20102;-61
2022/06/09 07:15:49;;;;;;;5.90;1.42;;;;;;;13.94;76.15;97156.88;5063801;28;20048;-61
2022/06/09 07:18:16;;;;;;;6.53;1.05;;;;;;;14.06;76.44;97156.56;5064148;28;20440;-61
2022/06/09 07:20:43;;;;;;;8.50;1.23;;;;;;;13.99;75.39;97172.38;5062819;28;20549;-61
2022/06/09 07:23:10;;;;;;;6.03;1.00;;;;;;;14.15;76.75;97165.75;5064225;28;20624;-61
2022/06/09 07:25:37;;;;;;;3.70;0.80;;;;;;;14.20;75.28;97170.38;5063167;28;20048;-61
2022/06/09 07:28:04;;;;;;;6.25;1.10;;;;;;;14.31;76.04;97179.28;5063882;28;20083;-61
2022/06/09 07:30:31;;;;;;;5.57;1.25;;;;;;;14.54;74.61;97174.25;5063879;28;20048;-60
2022/06/09 07:32:58;;;;;;;5.35;0.93;;;;;;;14.59;74.37;97167.97;5063795;28;20116;-61
2022/06/09 07:35:28;;;;;;;4.60;0.90;;;;;;;14.88;74.20;97176.19;5063556;28;20101;-61
2022/06/09 07:37:55;;;;;;;3.25;0.98;;;;;;;14.85;72.15;97179.50;5063630;28;20773;-61
2022/06/09 07:40:22;;;;;;;6.95;0.98;;;;;;;14.86;72.36;97192.03;5063937;28;20477;-61
2022/06/09 07:42:49;;;;;;;6.40;1.10;;;;;;;14.55;71.98;97190.31;5063685;28;20553;-61
2022/06/09 07:45:16;;;;;;;5.78;1.27;;;;;;;14.84;72.35;97186.06;5062760;28;20063;-61
2022/06/09 07:47:44;;;;;;;4.72;0.88;;;;;;;14.96;69.97;97191.13;5063305;28;20127;-60
2022/06/09 07:50:12;;;;;;;5.78;1.02;;;;;;;15.02;71.63;97181.81;5061474;28;20124;-60
2022/06/09 07:52:45;;;;;;;5.15;1.02;;;;;;;15.07;71.74;97183.69;5063408;28;20068;-60
2022/06/09 07:55:13;;;;;;;5.68;1.20;;;;;;;14.92;70.45;97184.63;5063218;28;20036;-62
2022/06/09 07:57:40;;;;;;;4.22;1.02;;;;;;;14.99;69.43;97190.56;5076902;28;20045;-60
2022/06/09 08:00:09;;;;;;;4.05;1.48;;;;;;;15.18;70.75;97187.94;5063608;28;20048;-60
2022/06/09 08:02:39;;;;;;;7.93;1.20;;;;;;;15.09;71.41;97195.13;5061007;28;20442;-60
2022/06/09 08:05:06;;;;;;;4.75;0.80;;;;;;;14.94;72.55;97196.06;5062747;28;20048;-61
2022/06/09 08:07:33;;;;;;;3.97;1.10;;;;;;;14.95;71.65;97192.22;5063075;28;20866;-60
2022/06/09 08:09:59;;;;;;;4.55;0.98;;;;;;;14.97;68.78;97197.41;5063933;28;20113;-61
2022/06/09 08:12:26;;;;;;;4.07;0.93;;;;;;;15.21;69.32;97209.19;5063231;28;20048;-59
2022/06/09 08:14:53;;;;;;;4.13;1.02;;;;;;;15.45;69.88;97202.16;5062948;28;20154;-61
2022/06/09 08:17:19;;;;;;;7.70;1.33;;;;;;;15.34;70.19;97204.19;5063298;28;20044;-60
2022/06/09 08:19:47;;;;;;;5.53;1.20;;;;;;;15.62;68.90;97206.38;5062985;28;20053;-61
2022/06/09 08:22:15;;;;;;;4.50;1.00;;;;;;;15.55;68.98;97215.69;5063483;28;20048;-61
2022/06/09 08:24:42;;;;;;;2.00;0.90;;;;;;;15.80;67.65;97205.59;5063645;28;20044;-62
2022/06/09 08:27:09;;;;;;;4.90;1.05;;;;;;;15.61;66.12;97205.53;5063896;28;20045;-61
2022/06/09 08:29:36;;;;;;;4.78;1.27;;;;;;;15.89;66.01;97202.25;5067090;28;20507;-60
2022/06/09 08:32:04;;;;;;;3.75;0.90;;;;;;;15.70;67.36;97208.47;5066449;28;20048;-61
2022/06/09 08:34:31;;;;;;;3.38;0.75;;;;;;;15.66;65.91;97216.41;5066735;28;20724;-61
2022/06/09 08:36:57;;;;;;;3.72;0.80;;;;;;;15.61;67.13;97213.72;5067124;28;20040;-60
2022/06/09 08:39:24;;;;;;;6.28;1.15;;;;;;;15.81;65.58;97212.69;5066608;28;20500;-61
2022/06/09 08:42:00;;;;;;;4.75;0.85;;;;;;;15.72;66.03;97222.63;5062545;28;20821;-61
2022/06/09 08:44:46;;;;;;;3.67;0.80;;;;;;;16.01;64.71;97219.06;5067563;28;20044;-60
2022/06/09 08:47:39;;;;;;;4.47;0.90;;;;;;;15.85;66.61;97219.19;5073887;28;20098;-60
2022/06/09 08:50:33;;;;;;;6.47;1.02;;;;;;;16.34;64.94;97215.66;5074851;28;20048;-60
2022/06/09 08:53:37;;;;;;;4.85;1.27;;;;;;;16.73;63.41;97216.50;5055345;28;20048;-60
2022/06/09 08:56:12;;;;;;;6.13;0.93;;;;;;;17.19;63.48;97223.19;5053038;28;20044;-61
2022/06/09 08:58:41;;;;;;;3.75;1.95;;;;;;;16.81;62.70;97221.25;5066639;28;20560;-61
2022/06/09 09:01:10;;;;;;;5.80;1.58;;;;;;;16.82;64.31;97225.63;5066544;28;20574;-61
2022/06/09 09:03:45;;;;;;;3.85;0.90;;;;;;;15.92;67.55;97231.69;5066304;28;20051;-61
2022/06/09 09:06:35;;;;;;;2.78;1.00;;;;;;;15.80;70.21;97232.09;5064871;28;20045;-61
2022/06/09 09:09:15;;;;;;;6.47;1.40;;;;;;;15.36;69.88;97223.00;5057186;28;20121;-61
2022/06/09 09:12:01;;;;;;;6.10;1.10;;;;;;;15.62;68.03;97228.19;5068010;28;20043;-61
2022/06/09 09:14:34;;;;;;;3.30;1.10;;;;;;;15.92;67.24;97226.25;5074115;28;20052;-62
2022/06/09 09:17:24;;;;;;;3.75;0.80;;;;;;;16.41;67.16;97237.13;5079381;28;20060;-61
2022/06/09 09:20:02;;;;;;;2.85;0.90;;;;;;;16.76;64.53;97238.56;5061187;28;20048;-60
2022/06/09 09:22:41;;;;;;;7.25;1.40;;;;;;;16.55;64.45;97229.03;5066679;28;20145;-60
2022/06/09 09:25:24;;;;;;;4.25;0.70;;;;;;;16.67;63.23;97232.16;5065933;28;20044;-61
2022/06/09 09:28:12;;;;;;;5.10;0.82;;;;;;;16.75;62.61;97228.75;5065295;28;20051;-61
2022/06/09 09:31:06;;;;;;;5.35;0.80;;;;;;;17.14;63.05;97236.94;5066340;28;20495;-62
2022/06/09 09:33:33;;;;;;;4.00;0.95;;;;;;;17.85;60.21;97241.47;5065351;28;20053;-60
2022/06/09 09:36:03;;;;;;;2.28;0.85;;;;;;;17.78;60.09;97244.59;5064900;28;20396;-60
2022/06/09 09:38:39;;;;;;;6.07;1.10;;;;;;;18.14;58.44;97250.53;5063401;28;20048;-61
2022/06/09 09:41:06;;;;;;;5.05;0.80;;;;;;;18.11;58.04;97253.88;5081900;28;20079;-61
2022/06/09 09:43:39;;;;;;;5.82;1.23;;;;;;;17.95;57.78;97256.91;5074769;28;20048;-61
2022/06/09 09:46:23;;;;;;;2.88;0.82;;;;;;;17.48;58.68;97255.00;5064632;28;20048;-61
2022/06/09 09:48:50;;;;;;;3.78;0.63;;;;;;;18.08;58.33;97244.34;5066274;28;20099;-61
2022/06/09 09:51:22;;;;;;;6.10;0.98;;;;;;;18.09;58.53;97245.16;5077636;28;20473;-61
2022/06/09 09:53:55;;;;;;;4.78;0.80;;;;;;;18.20;58.27;97252.84;5062345;28;20048;-61
2022/06/09 09:56:30;;;;;;;4.30;0.90;;;;;;;18.27;57.39;97263.41;5064815;28;20547;-61
2022/06/09 09:59:00;;;;;;;3.80;1.38;;;;;;;18.44;58.39;97268.28;5065746;28;20086;-61
2022/06/09 10:08:35;;;;;;;5.28;1.08;;;;;;;18.11;59.12;97259.34;5064589;28;20052;-61
2022/06/09 10:10:58;;;;;;;4.03;0.88;;;;;;;16.93;59.55;97272.78;5053852;28;20120;-62
2022/06/09 10:13:47;;;;;;;5.93;0.95;;;;;;;16.84;59.69;97272.63;5064706;28;20043;-62
2022/06/09 10:16:14;;;;;;;3.03;0.60;;;;;;;16.82;59.55;97274.03;5064608;28;20569;-62
2022/06/09 10:19:03;;;;;;;3.35;1.00;;;;;;;16.69;59.29;97268.19;5052500;28;20051;-61
2022/06/09 10:21:50;;;;;;;5.03;0.80;;;;;;;17.51;57.07;97273.53;5064738;28;20203;-61
2022/06/09 10:24:44;;;;;;;2.85;0.73;;;;;;;18.01;55.76;97274.00;5064918;28;20526;-60
2022/06/09 10:27:16;;;;;;;3.03;0.80;;;;;;;18.68;55.34;97275.44;5063678;28;20559;-62
2022/06/09 10:29:58;;;;;;;7.10;0.82;;;;;;;18.69;55.89;97276.25;5064833;28;20051;-62
2022/06/09 10:32:38;;;;;;;4.28;0.90;;;;;;;18.52;57.11;97285.94;5063523;28;20626;-61
2022/06/09 10:35:24;;;;;;;7.40;1.27;;;;;;;18.14;57.02;97283.41;5073319;28;20035;-60
2022/06/09 10:38:02;;;;;;;6.50;0.85;;;;;;;18.07;56.59;97279.09;5069970;28;20082;-61
2022/06/09 10:40:37;;;;;;;4.47;0.80;;;;;;;18.09;56.57;97283.50;5056951;28;20127;-61
2022/06/09 10:43:08;;;;;;;2.00;0.63;;;;;;;18.14;56.46;97292.41;5072046;28;20047;-61
2022/06/09 10:45:50;;;;;;;4.50;0.90;;;;;;;18.27;57.75;97281.75;5069921;28;20500;-61
2022/06/09 10:57:37;;;;;;;6.60;1.30;;;;;;;18.85;55.37;97293.19;5076578;28;20063;-61
2022/06/09 11:00:13;;;;;;;5.50;1.15;;;;;;;17.89;57.42;97293.69;5063978;28;20055;-61
2022/06/09 11:02:43;;;;;;;6.53;1.73;;;;;;;18.10;56.33;97291.44;5063425;28;20132;-61
2022/06/09 11:05:14;;;;;;;6.10;1.10;;;;;;;17.90;57.03;97298.88;5064131;28;20094;-61
2022/06/09 11:07:59;;;;;;;4.43;0.98;;;;;;;17.73;57.17;97296.69;5063470;28;20726;-62
2022/06/09 11:10:42;;;;;;;1.73;0.90;;;;;;;18.17;55.41;97296.50;5062293;28;20105;-61
2022/06/09 11:13:12;;;;;;;2.95;1.05;;;;;;;17.89;57.61;97301.91;5058097;28;20047;-61
2022/06/09 11:15:41;;;;;;;5.20;1.50;;;;;;;17.45;60.18;97306.75;5063736;28;20051;-62
2022/06/09 11:18:31;;;;;;;3.33;1.20;;;;;;;17.09;59.91;97308.94;5060210;28;20427;-62
2022/06/09 11:21:12;;;;;;;7.30;1.45;;;;;;;17.63;59.08;97305.91;5061844;28;20044;-61
2022/06/09 11:23:48;;;;;;;3.57;1.10;;;;;;;17.20;57.89;97304.13;5061096;28;20753;-61
2022/06/09 11:26:41;;;;;;;3.15;1.10;;;;;;;17.52;58.36;97315.41;5061342;28;20048;-62
2022/06/09 11:29:31;;;;;;;5.15;1.05;;;;;;;17.66;58.05;97309.97;5071051;28;20076;-61
2022/06/09 11:32:02;;;;;;;6.80;1.27;;;;;;;17.93;56.83;97309.22;5051369;28;20070;-62
2022/06/09 11:34:54;;;;;;;5.18;1.13;;;;;;;18.15;54.68;97302.28;5064267;28;20691;-61
2022/06/09 11:37:42;;;;;;;2.60;1.00;;;;;;;18.16;54.50;97311.28;5060014;28;20101;-61
2022/06/09 11:40:30;;;;;;;4.85;1.00;;;;;;;18.01;53.58;97313.19;5060364;28;20040;-65
2022/06/09 11:43:22;;;;;;;3.17;0.80;;;;;;;19.55;51.87;97303.94;5063141;28;20048;-65
2022/06/09 11:45:54;;;;;;;4.43;1.13;;;;;;;20.08;49.53;97298.75;5080131;28;20523;-64
2022/06/09 11:48:35;;;;;;;4.82;0.85;;;;;;;20.03;49.51;97304.41;5065263;28;20049;-65
2022/06/09 11:51:03;;;;;;;2.33;0.88;;;;;;;19.99;50.01;97301.47;5061097;28;20511;-64
2022/06/09 11:53:34;;;;;;;2.75;0.93;;;;;;;20.39;48.84;97303.38;5062877;28;20190;-64
2022/06/09 11:56:33;;;;;;;;;;;;;;;19.91;50.47;97299.47;5050346;28;20055;-65
2022/06/09 11:59:42;;;;;;;3.97;1.05;;;;;;;18.95;51.42;97301.16;5062962;28;20367;-64
2022/06/09 12:02:30;;;;;;;4.68;1.08;;;;;;;19.59;51.50;97309.59;5064899;28;20048;-65
2022/06/09 12:05:15;;;;;;;3.45;0.75;;;;;;;19.99;50.09;97308.91;5067807;28;20068;-65
2022/06/09 12:07:58;;;;;;;3.67;0.73;;;;;;;19.97;48.73;97306.44;5065200;28;20055;-65
2022/06/09 12:10:54;;;;;;;2.38;0.90;;;;;;;18.98;51.41;97297.00;5078452;28;20101;-64
2022/06/09 12:13:27;;;;;;;3.25;0.93;;;;;;;19.01;51.77;97309.31;5063078;28;20415;-64
2022/06/09 12:16:05;;;;;;;3.50;1.10;;;;;;;18.59;53.21;97308.28;5066353;28;20093;-64
2022/06/09 12:19:00;;;;;;;3.88;0.90;;;;;;;18.65;53.73;97317.19;5067250;28;20634;-63
2022/06/09 12:21:31;;;;;;;3.35;0.80;;;;;;;18.97;48.78;97306.34;5069370;28;20064;-64